createdAt,value
2022-10-19T00:00:08.913Z,50.849506
2022-10-19T00:01:08.889Z,50.849518
2022-10-19T00:02:08.919Z,50.849510
2022-10-19T00:03:08.862Z,50.849503
2022-10-19T00:04:09.074Z,50.849495
2022-10-19T00:05:08.876Z,50.849499
2022-10-19T00:06:08.848Z,50.849495
2022-10-19T00:07:08.832Z,50.849514
2022-10-19T00:08:08.844Z,50.849522
2022-10-19T00:09:08.816Z,50.849522
2022-10-19T00:10:08.839Z,50.849533
2022-10-19T00:11:08.810Z,50.849506
2022-10-19T00:12:08.803Z,50.849518
2022-10-19T00:13:08.796Z,50.849525
2022-10-19T00:14:08.782Z,50.849522
2022-10-19T00:15:08.774Z,50.849514
2022-10-19T00:16:11.321Z,50.849533
2022-10-19T00:17:08.745Z,50.849503
2022-10-19T00:18:08.748Z,50.849499
2022-10-19T00:19:08.739Z,50.849510
2022-10-19T00:20:08.719Z,50.849541
2022-10-19T00:21:08.722Z,50.849522
2022-10-19T00:22:11.623Z,50.849514
2022-10-19T00:23:09.699Z,50.849506
2022-10-19T00:24:08.689Z,50.849522
2022-10-19T00:25:08.687Z,50.849514
2022-10-19T00:26:08.686Z,50.849514
2022-10-19T00:27:08.686Z,50.849529
2022-10-19T00:28:08.698Z,50.849491
2022-10-19T00:29:08.683Z,50.849487
2022-10-19T00:30:08.714Z,50.849545
2022-10-19T00:31:08.646Z,50.849545
2022-10-19T00:32:08.635Z,50.849487
2022-10-19T00:33:08.629Z,50.849499
2022-10-19T00:34:08.650Z,50.849506
2022-10-19T00:35:08.608Z,50.849510
2022-10-19T00:36:08.590Z,50.849510
2022-10-19T00:37:08.601Z,50.849495
2022-10-19T00:38:08.583Z,50.849514
2022-10-19T00:39:08.568Z,50.849529
2022-10-19T00:40:08.581Z,50.849533
2022-10-19T00:41:08.548Z,50.849545
2022-10-19T00:42:08.538Z,50.849545
2022-10-19T00:43:08.537Z,50.849506
2022-10-19T00:44:08.525Z,50.849533
2022-10-19T00:45:08.529Z,50.849525
2022-10-19T00:46:08.536Z,50.849518
2022-10-19T00:47:08.502Z,50.849495
2022-10-19T00:48:08.508Z,50.849510
2022-10-19T00:49:10.733Z,50.849499
2022-10-19T00:50:08.510Z,50.849480
2022-10-19T00:51:08.467Z,50.849499
2022-10-19T00:52:08.593Z,50.849499
2022-10-19T00:53:08.456Z,50.849495
2022-10-19T00:54:08.489Z,50.849491
2022-10-19T00:55:08.447Z,50.849518
2022-10-19T00:56:08.430Z,50.849506
2022-10-19T00:57:08.426Z,50.849487
2022-10-19T00:58:08.425Z,50.849510
2022-10-19T00:59:08.453Z,50.849518
2022-10-19T01:00:08.410Z,50.849514
2022-10-19T01:01:08.445Z,50.849518
2022-10-19T01:02:08.409Z,50.849525
2022-10-19T01:03:08.374Z,50.849499
2022-10-19T01:04:08.361Z,50.849533
2022-10-19T01:05:08.381Z,50.849518
2022-10-19T01:06:08.361Z,50.849510
2022-10-19T01:07:08.353Z,50.849510
2022-10-19T01:08:08.347Z,50.849522
2022-10-19T01:09:08.328Z,50.849510
2022-10-19T01:10:08.350Z,50.849518
2022-10-19T01:11:08.320Z,50.849503
2022-10-19T01:12:08.313Z,50.849510
2022-10-19T01:13:08.294Z,50.849525
2022-10-19T01:14:08.288Z,50.849518
2022-10-19T01:15:08.274Z,50.849510
2022-10-19T01:16:08.293Z,50.849518
2022-10-19T01:17:08.269Z,50.849514
2022-10-19T01:18:08.256Z,50.849514
2022-10-19T01:19:08.247Z,50.849514
2022-10-19T01:20:08.330Z,50.849548
2022-10-19T01:21:08.224Z,50.849529
2022-10-19T01:22:08.255Z,50.849510
2022-10-19T01:23:08.211Z,50.849510
2022-10-19T01:24:08.216Z,50.849522
2022-10-19T01:25:08.213Z,50.849510
2022-10-19T01:26:08.203Z,50.849510
2022-10-19T01:27:08.210Z,50.849506
2022-10-19T01:28:08.210Z,50.849506
2022-10-19T01:29:08.240Z,50.849518
2022-10-19T01:30:08.169Z,50.849503
2022-10-19T01:31:08.147Z,50.849506
2022-10-19T01:32:08.149Z,50.849510
2022-10-19T01:33:08.161Z,50.849506
2022-10-19T01:34:08.176Z,50.849522
2022-10-19T01:35:08.117Z,50.849510
2022-10-19T01:36:08.118Z,50.849514
2022-10-19T01:37:08.092Z,50.849518
2022-10-19T01:38:08.168Z,50.849525
2022-10-19T01:39:08.107Z,50.849525
2022-10-19T01:40:08.100Z,50.849533
2022-10-19T01:41:08.069Z,50.849552
2022-10-19T01:42:08.070Z,50.849545
2022-10-19T01:43:08.056Z,50.849529
2022-10-19T01:44:08.051Z,50.849537
2022-10-19T01:45:08.051Z,50.849533
2022-10-19T01:46:08.051Z,50.849525
2022-10-19T01:47:08.042Z,50.849552
2022-10-19T01:48:08.075Z,50.849560
2022-10-19T01:49:07.998Z,50.849545
2022-10-19T01:50:07.996Z,50.849537
2022-10-19T01:51:07.990Z,50.849541
2022-10-19T01:52:07.993Z,50.849525
2022-10-19T01:53:08.005Z,50.849518
2022-10-19T01:54:07.977Z,50.849525
2022-10-19T01:55:07.951Z,50.849537
2022-10-19T01:56:07.947Z,50.849529
2022-10-19T01:57:07.972Z,50.849522
2022-10-19T01:58:09.556Z,50.849556
2022-10-19T01:59:07.916Z,50.849529
2022-10-19T02:00:07.917Z,50.849552
2022-10-19T02:01:08.060Z,50.849533
2022-10-19T02:02:07.900Z,50.849541
2022-10-19T02:03:07.896Z,50.849556
2022-10-19T02:04:07.997Z,50.849548
2022-10-19T02:05:07.878Z,50.849556
2022-10-19T02:06:07.863Z,50.849525
2022-10-19T02:07:07.859Z,50.849529
2022-10-19T02:08:07.868Z,50.849552
2022-10-19T02:09:07.835Z,50.849556
2022-10-19T02:10:07.898Z,50.849556
2022-10-19T02:11:07.814Z,50.849548
2022-10-19T02:12:07.808Z,50.849556
2022-10-19T02:13:07.857Z,50.849564
2022-10-19T02:14:07.798Z,50.849567
2022-10-19T02:15:07.814Z,50.849545
2022-10-19T02:16:07.775Z,50.849560
2022-10-19T02:17:07.770Z,50.849560
2022-10-19T02:18:07.763Z,50.849552
2022-10-19T02:19:07.752Z,50.849545
2022-10-19T02:20:07.787Z,50.849567
2022-10-19T02:21:07.765Z,50.849548
2022-10-19T02:22:07.745Z,50.849548
2022-10-19T02:23:07.712Z,50.849575
2022-10-19T02:24:07.713Z,50.849548
2022-10-19T02:25:07.696Z,50.849529
2022-10-19T02:26:07.728Z,50.849541
2022-10-19T02:27:07.695Z,50.849533
2022-10-19T02:28:07.669Z,50.849556
2022-10-19T02:29:07.670Z,50.849552
2022-10-19T02:30:07.659Z,50.849575
2022-10-19T02:31:07.645Z,50.849560
2022-10-19T02:32:07.682Z,50.849556
2022-10-19T02:33:07.675Z,50.849552
2022-10-19T02:34:07.617Z,50.849541
2022-10-19T02:35:07.611Z,50.849545
2022-10-19T02:36:07.618Z,50.849541
2022-10-19T02:37:07.598Z,50.849545
2022-10-19T02:38:07.623Z,50.849575
2022-10-19T02:39:07.607Z,50.849548
2022-10-19T02:40:07.576Z,50.849541
2022-10-19T02:41:07.592Z,50.849545
2022-10-19T02:42:07.558Z,50.849541
2022-10-19T02:43:07.540Z,50.849529
2022-10-19T02:44:07.545Z,50.849537
2022-10-19T02:45:07.525Z,50.849545
2022-10-19T02:46:07.520Z,50.849556
2022-10-19T02:47:07.535Z,50.849571
2022-10-19T02:48:07.511Z,50.849522
2022-10-19T02:49:07.494Z,50.849564
2022-10-19T02:50:07.483Z,50.849560
2022-10-19T02:51:07.497Z,50.849541
2022-10-19T02:52:07.470Z,50.849541
2022-10-19T02:53:07.466Z,50.849537
2022-10-19T02:54:07.450Z,50.849525
2022-10-19T02:55:07.485Z,50.849533
2022-10-19T02:56:07.464Z,50.849537
2022-10-19T02:57:07.435Z,50.849560
2022-10-19T02:58:07.476Z,50.849548
2022-10-19T02:59:07.419Z,50.849571
2022-10-19T03:00:07.492Z,50.849560
2022-10-19T03:03:33.043Z,50.849602
2022-10-19T03:04:33.031Z,50.849575
2022-10-19T03:05:33.070Z,50.849533
2022-10-19T03:06:33.013Z,50.849545
2022-10-19T03:07:33.172Z,50.849571
2022-10-19T03:08:32.996Z,50.849548
2022-10-19T03:09:33.030Z,50.849541
2022-10-19T03:10:32.979Z,50.849564
2022-10-19T03:11:32.993Z,50.849548
2022-10-19T03:12:32.994Z,50.849537
2022-10-19T03:13:33.068Z,50.849571
2022-10-19T03:14:32.959Z,50.849575
2022-10-19T03:15:32.945Z,50.849533
2022-10-19T03:16:32.931Z,50.849552
2022-10-19T03:17:33.384Z,50.849533
2022-10-19T03:18:32.944Z,50.849529
2022-10-19T03:19:32.926Z,50.849525
2022-10-19T03:20:32.913Z,50.849491
2022-10-19T03:21:32.923Z,50.849495
2022-10-19T03:22:32.879Z,50.849487
2022-10-19T03:23:32.875Z,50.849487
2022-10-19T03:24:32.896Z,50.849483
2022-10-19T03:25:32.877Z,50.849491
2022-10-19T03:26:32.846Z,50.849495
2022-10-19T03:27:33.235Z,50.849499
2022-10-19T03:28:32.875Z,50.849529
2022-10-19T03:29:32.815Z,50.849499
2022-10-19T03:30:32.880Z,50.849487
2022-10-19T03:31:32.798Z,50.849499
2022-10-19T03:32:32.858Z,50.849495
2022-10-19T03:33:32.791Z,50.849510
2022-10-19T03:34:32.774Z,50.849510
2022-10-19T03:35:32.768Z,50.849506
2022-10-19T03:36:32.921Z,50.849529
2022-10-19T03:37:33.024Z,50.849522
2022-10-19T03:38:32.761Z,50.849522
2022-10-19T03:39:32.760Z,50.849518
2022-10-19T03:40:32.782Z,50.849510
2022-10-19T03:41:32.777Z,50.849510
2022-10-19T03:42:32.721Z,50.849495
2022-10-19T03:43:32.883Z,50.849541
2022-10-19T03:44:32.711Z,50.849537
2022-10-19T03:45:32.691Z,50.849518
2022-10-19T03:46:32.699Z,50.849506
2022-10-19T03:47:32.981Z,50.849514
2022-10-19T03:48:32.659Z,50.849537
2022-10-19T03:49:34.616Z,50.849476
2022-10-19T03:50:32.642Z,50.849491
2022-10-19T03:51:32.653Z,50.849457
2022-10-19T03:52:32.633Z,50.849487
2022-10-19T03:53:33.274Z,50.849449
2022-10-19T03:54:32.620Z,50.849499
2022-10-19T03:55:32.602Z,50.849506
2022-10-19T03:56:32.646Z,50.849499
2022-10-19T03:57:33.106Z,50.849483
2022-10-19T03:58:32.587Z,50.849480
2022-10-19T03:59:32.571Z,50.849464
2022-10-19T04:00:32.567Z,50.849461
2022-10-19T04:01:32.612Z,50.849449
2022-10-19T04:02:32.558Z,50.849445
2022-10-19T04:03:32.599Z,50.849457
2022-10-19T04:04:32.528Z,50.849464
2022-10-19T04:05:32.517Z,50.849468
2022-10-19T04:06:32.530Z,50.849506
2022-10-19T04:07:32.704Z,50.849533
2022-10-19T04:08:32.494Z,50.849529
2022-10-19T04:09:32.510Z,50.849503
2022-10-19T04:10:32.479Z,50.849495
2022-10-19T04:11:32.466Z,50.849442
2022-10-19T04:12:32.458Z,50.849438
2022-10-19T04:13:32.446Z,50.849468
2022-10-19T04:14:39.228Z,50.849522
2022-10-19T04:15:33.446Z,50.849483
2022-10-19T04:16:32.434Z,50.849464
2022-10-19T04:17:32.756Z,50.849476
2022-10-19T04:18:32.401Z,50.849476
2022-10-19T04:19:32.394Z,50.849506
2022-10-19T04:20:32.377Z,50.849464
2022-10-19T04:21:32.674Z,50.849491
2022-10-19T04:22:32.367Z,50.849514
2022-10-19T04:23:32.357Z,50.849491
2022-10-19T04:24:32.343Z,50.849495
2022-10-19T04:25:32.339Z,50.849514
2022-10-19T04:26:32.336Z,50.849495
2022-10-19T04:27:32.569Z,50.849480
2022-10-19T04:28:32.402Z,50.849495
2022-10-19T04:29:32.305Z,50.849487
2022-10-19T04:30:32.294Z,50.849518
2022-10-19T04:31:32.320Z,50.849499
2022-10-19T04:32:32.283Z,50.849499
2022-10-19T04:33:32.362Z,50.849506
2022-10-19T04:34:35.191Z,50.849495
2022-10-19T04:35:33.246Z,50.849483
2022-10-19T04:36:32.233Z,50.849491
2022-10-19T04:37:32.653Z,50.849514
2022-10-19T04:38:32.220Z,50.849480
2022-10-19T04:39:32.216Z,50.849487
2022-10-19T04:40:32.213Z,50.849472
2022-10-19T04:41:32.208Z,50.849487
2022-10-19T04:42:32.182Z,50.849506
2022-10-19T04:43:32.218Z,50.849525
2022-10-19T04:44:32.178Z,50.849537
2022-10-19T04:45:32.167Z,50.849529
2022-10-19T04:46:32.148Z,50.849518
2022-10-19T04:47:32.591Z,50.849503
2022-10-19T04:48:32.134Z,50.849499
2022-10-19T04:49:32.163Z,50.849518
2022-10-19T04:50:32.140Z,50.849503
2022-10-19T04:51:32.138Z,50.849503
2022-10-19T04:52:32.212Z,50.849518
2022-10-19T04:53:32.100Z,50.849514
2022-10-19T04:54:32.133Z,50.849503
2022-10-19T04:55:32.096Z,50.849476
2022-10-19T04:56:32.105Z,50.849491
2022-10-19T04:57:32.513Z,50.849514
2022-10-19T04:58:32.044Z,50.849510
2022-10-19T04:59:32.038Z,50.849529
2022-10-19T05:00:32.052Z,50.849529
2022-10-19T05:01:32.090Z,50.849533
2022-10-19T05:02:32.032Z,50.849487
2022-10-19T05:03:32.013Z,50.849503
2022-10-19T05:04:31.990Z,50.849503
2022-10-19T05:05:31.985Z,50.849514
2022-10-19T05:06:31.992Z,50.849499
2022-10-19T05:07:32.216Z,50.849506
2022-10-19T05:08:31.986Z,50.849503
2022-10-19T05:09:31.961Z,50.849483
2022-10-19T05:10:31.970Z,50.849506
2022-10-19T05:11:31.957Z,50.849518
2022-10-19T05:12:31.931Z,50.849525
2022-10-19T05:13:31.979Z,50.849548
2022-10-19T05:14:31.945Z,50.849525
2022-10-19T05:15:31.888Z,50.849499
2022-10-19T05:16:31.890Z,50.849503
2022-10-19T05:17:32.217Z,50.849503
2022-10-19T05:18:31.875Z,50.849506
2022-10-19T05:19:31.884Z,50.849480
2022-10-19T05:20:31.859Z,50.849491
2022-10-19T05:21:31.880Z,50.849514
2022-10-19T05:22:31.842Z,50.849529
2022-10-19T05:24:31.832Z,50.849529
2022-10-19T05:25:31.814Z,50.849514
2022-10-19T05:26:31.847Z,50.849499
2022-10-19T05:27:32.186Z,50.849560
2022-10-19T05:28:31.885Z,50.849514
2022-10-19T05:29:31.920Z,50.849491
2022-10-19T05:30:31.771Z,50.849445
2022-10-19T05:31:31.769Z,50.849461
2022-10-19T05:32:31.883Z,50.849453
2022-10-19T05:33:31.768Z,50.849506
2022-10-19T05:34:31.746Z,50.849495
2022-10-19T05:35:31.729Z,50.849472
2022-10-19T05:36:31.729Z,50.849491
2022-10-19T05:37:32.067Z,50.849476
2022-10-19T05:38:31.706Z,50.849472
2022-10-19T05:39:31.726Z,50.849518
2022-10-19T05:40:31.687Z,50.849533
2022-10-19T05:41:31.685Z,50.849518
2022-10-19T05:42:31.688Z,50.849506
2022-10-19T05:43:31.661Z,50.849552
2022-10-19T05:44:31.726Z,50.849537
2022-10-19T05:45:31.652Z,50.849525
2022-10-19T05:46:31.658Z,50.849510
2022-10-19T05:47:31.667Z,50.849518
2022-10-19T05:48:31.648Z,50.849487
2022-10-19T05:49:31.615Z,50.849483
2022-10-19T05:50:31.633Z,50.849503
2022-10-19T05:51:31.608Z,50.849487
2022-10-19T05:52:31.587Z,50.849487
2022-10-19T05:53:31.612Z,50.849529
2022-10-19T05:54:31.584Z,50.849518
2022-10-19T05:55:31.579Z,50.849510
2022-10-19T05:56:31.546Z,50.849506
2022-10-19T05:57:31.800Z,50.849545
2022-10-19T05:58:31.557Z,50.849525
2022-10-19T05:59:31.550Z,50.849503
2022-10-19T06:00:31.505Z,50.849537
2022-10-19T06:01:31.568Z,50.849499
2022-10-19T06:02:31.496Z,50.849506
2022-10-19T06:03:31.489Z,50.849525
2022-10-19T06:04:31.515Z,50.849514
2022-10-19T06:05:31.494Z,50.849529
2022-10-19T06:06:31.468Z,50.849510
2022-10-19T06:07:31.599Z,50.849487
2022-10-19T06:08:31.459Z,50.849503
2022-10-19T06:09:31.440Z,50.849499
2022-10-19T06:10:31.440Z,50.849510
2022-10-19T06:11:31.415Z,50.849525
2022-10-19T06:12:31.412Z,50.849541
2022-10-19T06:13:31.401Z,50.849522
2022-10-19T06:14:31.391Z,50.849514
2022-10-19T06:15:31.415Z,50.849506
2022-10-19T06:16:31.406Z,50.849518
2022-10-19T06:17:31.636Z,50.849533
2022-10-19T06:18:31.366Z,50.849548
2022-10-19T06:19:31.358Z,50.849548
2022-10-19T06:20:31.347Z,50.849533
2022-10-19T06:21:31.354Z,50.849529
2022-10-19T06:22:31.319Z,50.849541
2022-10-19T06:23:31.381Z,50.849552
2022-10-19T06:24:31.323Z,50.849548
2022-10-19T06:25:31.291Z,50.849545
2022-10-19T06:26:31.286Z,50.849541
2022-10-19T06:27:31.666Z,50.849533
2022-10-19T06:28:31.285Z,50.849510
2022-10-19T06:29:31.301Z,50.849525
2022-10-19T06:30:31.287Z,50.849525
2022-10-19T06:31:31.248Z,50.849518
2022-10-19T06:32:31.320Z,50.849522
2022-10-19T06:33:31.255Z,50.849545
2022-10-19T06:34:31.275Z,50.849552
2022-10-19T06:35:31.223Z,50.849548
2022-10-19T06:36:31.204Z,50.849533
2022-10-19T06:37:31.359Z,50.849552
2022-10-19T06:38:31.195Z,50.849556
2022-10-19T06:39:31.273Z,50.849525
2022-10-19T06:40:31.267Z,50.849529
2022-10-19T06:41:31.173Z,50.849518
2022-10-19T06:42:31.146Z,50.849575
2022-10-19T06:43:31.145Z,50.849586
2022-10-19T06:44:31.159Z,50.849564
2022-10-19T06:45:35.582Z,50.849560
2022-10-19T06:46:31.146Z,50.849545
2022-10-19T06:47:31.210Z,50.849564
2022-10-19T06:48:31.100Z,50.849499
2022-10-19T06:49:31.084Z,50.849529
2022-10-19T06:50:31.091Z,50.849571
2022-10-19T06:51:31.094Z,50.849590
2022-10-19T06:52:31.308Z,50.849537
2022-10-19T06:53:31.072Z,50.849533
2022-10-19T06:54:31.043Z,50.849514
2022-10-19T06:55:31.039Z,50.849537
2022-10-19T06:56:31.052Z,50.849552
2022-10-19T06:57:31.041Z,50.849533
2022-10-19T06:58:31.049Z,50.849541
2022-10-19T06:59:31.252Z,50.849525
2022-10-19T07:00:31.061Z,50.849525
2022-10-19T07:01:31.014Z,50.849609
2022-10-19T07:02:31.083Z,50.849606
2022-10-19T07:03:31.070Z,50.849564
2022-10-19T07:04:30.953Z,50.849529
2022-10-19T07:05:30.957Z,50.849586
2022-10-19T07:06:30.957Z,50.849548
2022-10-19T07:07:31.098Z,50.849480
2022-10-19T07:08:31.105Z,50.849525
2022-10-19T07:09:30.978Z,50.849522
2022-10-19T07:10:31.550Z,50.849483
2022-10-19T07:11:30.906Z,50.849514
2022-10-19T07:12:30.898Z,50.849537
2022-10-19T07:13:30.996Z,50.849522
2022-10-19T07:14:30.939Z,50.849548
2022-10-19T07:15:30.883Z,50.849552
2022-10-19T07:16:30.869Z,50.849590
2022-10-19T07:17:30.890Z,50.849579
2022-10-19T07:18:30.860Z,50.849514
2022-10-19T07:19:30.848Z,50.849548
2022-10-19T07:20:30.838Z,50.849495
2022-10-19T07:21:30.814Z,50.849514
2022-10-19T07:22:30.804Z,50.849556
2022-10-19T07:23:30.793Z,50.849487
2022-10-19T07:24:30.788Z,50.849522
2022-10-19T07:25:30.809Z,50.849545
2022-10-19T07:26:30.793Z,50.849491
2022-10-19T07:27:35.283Z,50.849522
2022-10-19T07:28:31.770Z,50.849552
2022-10-19T07:29:30.761Z,50.849522
2022-10-19T07:30:30.744Z,50.849533
2022-10-19T07:31:30.790Z,50.849541
2022-10-19T07:32:30.764Z,50.849518
2022-10-19T07:33:30.728Z,50.849537
2022-10-19T07:34:30.709Z,50.849564
2022-10-19T07:35:30.728Z,50.849567
2022-10-19T07:36:30.701Z,50.849545
2022-10-19T07:37:30.742Z,50.849560
2022-10-19T07:38:30.665Z,50.849525
2022-10-19T07:39:30.663Z,50.849518
2022-10-19T07:40:30.664Z,50.849522
2022-10-19T07:41:30.652Z,50.849552
2022-10-19T07:42:30.649Z,50.849548
2022-10-19T07:43:30.670Z,50.849541
2022-10-19T07:44:31.478Z,50.849529
2022-10-19T07:45:30.622Z,50.849548
2022-10-19T07:46:30.612Z,50.849560
2022-10-19T07:47:30.810Z,50.849564
2022-10-19T07:48:30.594Z,50.849564
2022-10-19T07:49:30.625Z,50.849571
2022-10-19T07:50:30.569Z,50.849564
2022-10-19T07:51:30.572Z,50.849564
2022-10-19T07:52:33.073Z,50.849541
2022-10-19T07:53:31.639Z,50.849545
2022-10-19T07:54:30.568Z,50.849541
2022-10-19T07:55:30.559Z,50.849545
2022-10-19T07:56:30.769Z,50.849522
2022-10-19T07:57:30.560Z,50.849533
2022-10-19T07:58:30.510Z,50.849514
2022-10-19T07:59:30.497Z,50.849560
2022-10-19T08:00:30.552Z,50.849579
2022-10-19T08:01:30.474Z,50.849583
2022-10-19T08:02:39.496Z,50.849594
2022-10-19T08:04:31.327Z,50.849552
2022-10-19T08:04:59.026Z,50.849567
2022-10-19T08:05:31.463Z,50.849525
2022-10-19T08:06:30.454Z,50.849525
2022-10-19T08:07:30.424Z,50.849567
2022-10-19T08:08:30.475Z,50.849575
2022-10-19T08:10:31.404Z,50.849560
2022-10-19T08:11:30.403Z,50.849556
2022-10-19T08:12:30.406Z,50.849571
2022-10-19T08:13:30.389Z,50.849552
2022-10-19T08:14:30.376Z,50.849594
2022-10-19T08:15:30.365Z,50.849602
2022-10-19T08:16:30.418Z,50.849598
2022-10-19T08:17:30.348Z,50.849583
2022-10-19T08:18:30.332Z,50.849548
2022-10-19T08:19:30.319Z,50.849552
2022-10-19T08:20:30.345Z,50.849548
2022-10-19T08:21:30.321Z,50.849552
2022-10-19T08:22:30.299Z,50.849564
2022-10-19T08:23:30.306Z,50.849564
2022-10-19T08:24:30.282Z,50.849567
2022-10-19T08:25:30.297Z,50.849571
2022-10-19T08:26:30.262Z,50.849564
2022-10-19T08:27:30.308Z,50.849545
2022-10-19T08:28:30.364Z,50.849552
2022-10-19T08:29:31.538Z,50.849548
2022-10-19T08:30:30.228Z,50.849533
2022-10-19T08:31:30.222Z,50.849545
2022-10-19T08:32:30.209Z,50.849529
2022-10-19T08:33:30.201Z,50.849541
2022-10-19T08:34:30.203Z,50.849529
2022-10-19T08:35:30.212Z,50.849556
2022-10-19T08:36:30.180Z,50.849529
2022-10-19T08:37:44.138Z,50.849556
2022-10-19T08:38:31.162Z,50.849567
2022-10-19T08:39:30.160Z,50.849529
2022-10-19T08:40:30.156Z,50.849503
2022-10-19T08:41:30.201Z,50.849514
2022-10-19T08:42:30.135Z,50.849522
2022-10-19T08:43:30.130Z,50.849518
2022-10-19T08:44:30.151Z,50.849510
2022-10-19T08:45:30.150Z,50.849522
2022-10-19T08:46:30.127Z,50.849537
2022-10-19T08:47:30.126Z,50.849541
2022-10-19T08:48:30.106Z,50.849510
2022-10-19T08:49:30.113Z,50.849510
2022-10-19T08:50:30.075Z,50.849503
2022-10-19T08:51:30.079Z,50.849533
2022-10-19T08:52:34.224Z,50.849529
2022-10-19T08:53:30.060Z,50.849506
2022-10-19T08:54:30.022Z,50.849487
2022-10-19T08:55:30.045Z,50.849514
2022-10-19T08:56:49.874Z,50.849529
2022-10-19T08:57:31.151Z,50.849533
2022-10-19T08:58:29.988Z,50.849533
2022-10-19T08:59:30.021Z,50.849522
2022-10-19T09:00:29.994Z,50.849548
2022-10-19T09:01:32.686Z,50.849571
2022-10-19T09:04:56.672Z,50.849537
2022-10-19T09:05:56.631Z,50.849525
2022-10-19T09:06:56.630Z,50.849522
2022-10-19T09:07:56.583Z,50.849541
2022-10-19T09:08:56.600Z,50.849537
2022-10-19T09:09:56.574Z,50.849545
2022-10-19T09:10:56.561Z,50.849514
2022-10-19T09:11:56.598Z,50.849518
2022-10-19T09:12:58.488Z,50.849525
2022-10-19T09:14:07.988Z,50.849567
2022-10-19T09:14:57.529Z,50.849541
2022-10-19T09:15:56.528Z,50.849537
2022-10-19T09:16:56.518Z,50.849545
2022-10-19T09:17:56.531Z,50.849506
2022-10-19T09:18:56.525Z,50.849579
2022-10-19T09:19:56.485Z,50.849670
2022-10-19T09:20:57.446Z,50.849663
2022-10-19T09:21:56.635Z,50.849598
2022-10-19T09:22:56.502Z,50.849625
2022-10-19T09:23:56.469Z,50.849564
2022-10-19T09:24:56.610Z,50.849545
2022-10-19T09:25:56.437Z,50.849552
2022-10-19T09:26:56.561Z,50.849525
2022-10-19T09:27:56.445Z,50.849541
2022-10-19T09:28:56.442Z,50.849548
2022-10-19T09:29:56.422Z,50.849514
2022-10-19T09:30:56.632Z,50.849510
2022-10-19T09:31:56.385Z,50.849564
2022-10-19T09:32:56.387Z,50.849556
2022-10-19T09:33:56.386Z,50.849556
2022-10-19T09:34:56.399Z,50.849552
2022-10-19T09:35:56.414Z,50.849560
2022-10-19T09:36:56.374Z,50.849522
2022-10-19T09:37:56.965Z,50.849518
2022-10-19T09:38:56.351Z,50.849529
2022-10-19T09:39:56.443Z,50.849514
2022-10-19T09:40:56.317Z,50.849525
2022-10-19T09:41:56.342Z,50.849545
2022-10-19T09:42:56.310Z,50.849525
2022-10-19T09:43:56.290Z,50.849529
2022-10-19T09:44:56.298Z,50.849541
2022-10-19T09:45:56.311Z,50.849537
2022-10-19T09:46:56.279Z,50.849533
2022-10-19T09:48:00.417Z,50.849495
2022-10-19T09:48:57.256Z,50.849514
2022-10-19T09:49:56.778Z,50.849541
2022-10-19T09:50:56.283Z,50.849514
2022-10-19T09:51:56.247Z,50.849514
2022-10-19T09:52:56.225Z,50.849495
2022-10-19T09:53:56.251Z,50.849480
2022-10-19T09:54:56.224Z,50.849506
2022-10-19T09:55:56.984Z,50.849533
2022-10-19T09:56:56.223Z,50.849525
2022-10-19T09:57:56.191Z,50.849529
2022-10-19T09:58:56.183Z,50.849506
2022-10-19T09:59:56.183Z,50.849503
2022-10-19T10:00:56.306Z,50.849491
2022-10-19T10:01:56.287Z,50.849548
2022-10-19T10:02:56.285Z,50.849518
2022-10-19T10:03:56.165Z,50.849503
2022-10-19T10:04:56.143Z,50.849522
2022-10-19T10:05:56.474Z,50.849529
2022-10-19T10:06:56.130Z,50.849510
2022-10-19T10:07:56.145Z,50.849510
2022-10-19T10:08:56.351Z,50.849537
2022-10-19T10:09:56.289Z,50.849537
2022-10-19T10:11:03.017Z,50.849506
2022-10-19T10:14:22.677Z,50.849453
2022-10-19T10:15:22.666Z,50.849503
2022-10-19T10:16:22.977Z,50.849434
2022-10-19T10:17:22.627Z,50.849422
2022-10-19T10:18:22.681Z,50.849464
2022-10-19T10:19:25.345Z,50.849422
2022-10-19T10:20:23.590Z,50.849461
2022-10-19T10:21:25.565Z,50.849377
2022-10-19T10:22:22.606Z,50.849403
2022-10-19T10:23:22.640Z,50.849468
2022-10-19T10:24:22.766Z,50.849449
2022-10-19T10:25:22.622Z,50.849419
2022-10-19T10:26:22.576Z,50.849407
2022-10-19T10:27:22.563Z,50.849422
2022-10-19T10:28:22.555Z,50.849453
2022-10-19T10:29:22.677Z,50.849442
2022-10-19T10:30:22.525Z,50.849442
2022-10-19T10:31:22.556Z,50.849442
2022-10-19T10:32:22.517Z,50.849499
2022-10-19T10:33:33.305Z,50.849525
2022-10-19T10:34:37.472Z,50.849571
2022-10-19T10:35:23.499Z,50.849518
2022-10-19T10:36:22.545Z,50.849537
2022-10-19T10:37:22.508Z,50.849525
2022-10-19T10:38:22.810Z,50.849567
2022-10-19T10:39:22.949Z,50.849510
2022-10-19T10:40:23.603Z,50.849499
2022-10-19T10:41:22.537Z,50.849464
2022-10-19T10:42:22.430Z,50.849525
2022-10-19T10:43:22.522Z,50.849533
2022-10-19T10:44:22.562Z,50.849537
2022-10-19T10:45:22.419Z,50.849464
2022-10-19T10:46:22.415Z,50.849476
2022-10-19T10:47:22.392Z,50.849529
2022-10-19T10:48:23.630Z,50.849506
2022-10-19T10:49:22.418Z,50.849483
2022-10-19T10:50:22.390Z,50.849464
2022-10-19T10:51:22.606Z,50.849525
2022-10-19T10:52:22.361Z,50.849514
2022-10-19T10:53:22.700Z,50.849525
2022-10-19T10:54:22.478Z,50.849529
2022-10-19T10:55:22.336Z,50.849545
2022-10-19T10:56:22.376Z,50.849533
2022-10-19T10:58:25.514Z,50.849506
2022-10-19T10:59:23.333Z,50.849545
2022-10-19T11:00:22.290Z,50.849510
2022-10-19T11:01:22.338Z,50.849514
2022-10-19T11:02:22.330Z,50.849525
2022-10-19T11:03:23.492Z,50.849506
2022-10-19T11:04:22.316Z,50.849495
2022-10-19T11:05:22.306Z,50.849506
2022-10-19T11:06:22.261Z,50.849525
2022-10-19T11:07:22.269Z,50.849491
2022-10-19T11:08:22.233Z,50.849495
2022-10-19T11:09:22.213Z,50.849548
2022-10-19T11:10:23.145Z,50.849545
2022-10-19T11:11:22.286Z,50.849537
2022-10-19T11:12:22.191Z,50.849545
2022-10-19T11:13:22.178Z,50.849541
2022-10-19T11:14:23.158Z,50.849560
2022-10-19T11:15:22.215Z,50.849533
2022-10-19T11:16:22.176Z,50.849506
2022-10-19T11:17:22.186Z,50.849522
2022-10-19T11:18:23.155Z,50.849503
2022-10-19T11:19:22.141Z,50.849487
2022-10-19T11:20:22.187Z,50.849529
2022-10-19T11:21:23.571Z,50.849518
2022-10-19T11:22:24.862Z,50.849514
2022-10-19T11:23:22.109Z,50.849533
2022-10-19T11:24:22.217Z,50.849522
2022-10-19T11:25:22.123Z,50.849499
2022-10-19T11:26:22.123Z,50.849480
2022-10-19T11:27:22.119Z,50.849491
2022-10-19T11:28:22.130Z,50.849506
2022-10-19T11:29:22.055Z,50.849503
2022-10-19T11:30:22.077Z,50.849495
2022-10-19T11:31:22.058Z,50.849506
2022-10-19T11:32:22.023Z,50.849499
2022-10-19T11:33:22.733Z,50.849495
2022-10-19T11:34:25.127Z,50.849472